sensor_id;sensor_type;location;lat;lon;timestamp;temperature;humidity
18894;DHT22;9579;49.488;8.226;2023-06-10T00:00:10;21.10;85.10
18894;DHT22;9579;49.488;8.226;2023-06-10T00:02:58;21.00;85.50
18894;DHT22;9579;49.488;8.226;2023-06-10T00:05:46;21.00;85.40
18894;DHT22;9579;49.488;8.226;2023-06-10T00:08:34;21.10;85.30
18894;DHT22;9579;49.488;8.226;2023-06-10T00:11:23;21.00;85.30
18894;DHT22;9579;49.488;8.226;2023-06-10T00:14:10;21.00;85.20
18894;DHT22;9579;49.488;8.226;2023-06-10T00:16:57;21.00;85.70
18894;DHT22;9579;49.488;8.226;2023-06-10T00:19:44;20.90;86.00
18894;DHT22;9579;49.488;8.226;2023-06-10T00:22:32;20.80;85.90
18894;DHT22;9579;49.488;8.226;2023-06-10T00:25:21;20.90;85.90
18894;DHT22;9579;49.488;8.226;2023-06-10T00:28:07;20.80;86.00
18894;DHT22;9579;49.488;8.226;2023-06-10T00:30:55;20.80;86.20
18894;DHT22;9579;49.488;8.226;2023-06-10T00:33:43;20.80;86.50
18894;DHT22;9579;49.488;8.226;2023-06-10T00:36:30;20.80;86.20
18894;DHT22;9579;49.488;8.226;2023-06-10T00:39:17;20.80;86.50
18894;DHT22;9579;49.488;8.226;2023-06-10T00:42:06;20.70;86.60
18894;DHT22;9579;49.488;8.226;2023-06-10T00:44:54;20.70;86.70
18894;DHT22;9579;49.488;8.226;2023-06-10T00:47:41;20.60;87.00
18894;DHT22;9579;49.488;8.226;2023-06-10T00:50:28;20.60;87.00
18894;DHT22;9579;49.488;8.226;2023-06-10T00:53:15;20.60;87.20
18894;DHT22;9579;49.488;8.226;2023-06-10T00:56:02;20.60;86.80
18894;DHT22;9579;49.488;8.226;2023-06-10T00:58:51;20.60;86.50
18894;DHT22;9579;49.488;8.226;2023-06-10T01:01:38;20.50;86.80
18894;DHT22;9579;49.488;8.226;2023-06-10T01:04:25;20.40;87.10
18894;DHT22;9579;49.488;8.226;2023-06-10T01:07:18;20.30;87.60
18894;DHT22;9579;49.488;8.226;2023-06-10T01:10:12;20.10;87.80
18894;DHT22;9579;49.488;8.226;2023-06-10T01:13:02;20.10;88.40
18894;DHT22;9579;49.488;8.226;2023-06-10T01:15:52;20.10;88.40
18894;DHT22;9579;49.488;8.226;2023-06-10T01:18:40;20.10;88.90
18894;DHT22;9579;49.488;8.226;2023-06-10T05:08:34;21.00;88.40
18894;DHT22;9579;49.488;8.226;2023-06-10T05:11:21;21.10;87.60
18894;DHT22;9579;49.488;8.226;2023-06-10T05:14:08;21.20;86.90
18894;DHT22;9579;49.488;8.226;2023-06-10T05:16:55;21.40;86.50
18894;DHT22;9579;49.488;8.226;2023-06-10T05:19:42;21.60;86.30
18894;DHT22;9579;49.488;8.226;2023-06-10T05:22:30;21.70;85.20
18894;DHT22;9579;49.488;8.226;2023-06-10T05:25:18;21.80;84.50
18894;DHT22;9579;49.488;8.226;2023-06-10T05:28:05;22.10;84.50
18894;DHT22;9579;49.488;8.226;2023-06-10T05:30:55;22.00;84.40
18894;DHT22;9579;49.488;8.226;2023-06-10T05:33:42;22.20;84.00
18894;DHT22;9579;49.488;8.226;2023-06-10T05:36:29;22.30;83.70
18894;DHT22;9579;49.488;8.226;2023-06-10T05:39:16;22.40;83.70
18894;DHT22;9579;49.488;8.226;2023-06-10T05:42:06;22.50;83.00
18894;DHT22;9579;49.488;8.226;2023-06-10T05:44:53;22.70;83.00
18894;DHT22;9579;49.488;8.226;2023-06-10T05:47:40;22.80;82.70
18894;DHT22;9579;49.488;8.226;2023-06-10T05:50:27;23.00;82.60
18894;DHT22;9579;49.488;8.226;2023-06-10T05:53:15;23.20;82.10
18894;DHT22;9579;49.488;8.226;2023-06-10T05:56:02;23.30;81.50
18894;DHT22;9579;49.488;8.226;2023-06-10T05:58:51;23.30;81.70
18894;DHT22;9579;49.488;8.226;2023-06-10T06:01:38;23.50;81.80
18894;DHT22;9579;49.488;8.226;2023-06-10T06:04:25;23.70;81.40
18894;DHT22;9579;49.488;8.226;2023-06-10T06:07:12;23.90;80.60
18894;DHT22;9579;49.488;8.226;2023-06-10T06:09:59;24.00;80.30
18894;DHT22;9579;49.488;8.226;2023-06-10T06:12:46;24.00;80.30
18894;DHT22;9579;49.488;8.226;2023-06-10T06:15:34;24.30;79.60
18894;DHT22;9579;49.488;8.226;2023-06-10T06:18:21;24.50;79.60
18894;DHT22;9579;49.488;8.226;2023-06-10T06:21:08;24.70;79.00
18894;DHT22;9579;49.488;8.226;2023-06-10T06:23:55;24.70;78.70
18894;DHT22;9579;49.488;8.226;2023-06-10T06:26:43;24.90;78.10
18894;DHT22;9579;49.488;8.226;2023-06-10T06:29:31;25.10;77.40
18894;DHT22;9579;49.488;8.226;2023-06-10T06:32:19;25.30;77.50
18894;DHT22;9579;49.488;8.226;2023-06-10T06:35:08;25.60;76.70
18894;DHT22;9579;49.488;8.226;2023-06-10T06:37:55;25.40;76.10
18894;DHT22;9579;49.488;8.226;2023-06-10T06:40:42;25.70;76.50
18894;DHT22;9579;49.488;8.226;2023-06-10T06:43:29;26.00;75.60
18894;DHT22;9579;49.488;8.226;2023-06-10T06:46:16;26.30;75.30
18894;DHT22;9579;49.488;8.226;2023-06-10T06:49:05;26.40;74.60
18894;DHT22;9579;49.488;8.226;2023-06-10T06:51:52;26.60;73.80
18894;DHT22;9579;49.488;8.226;2023-06-10T06:54:39;26.80;73.30
18894;DHT22;9579;49.488;8.226;2023-06-10T06:57:26;27.00;73.50
18894;DHT22;9579;49.488;8.226;2023-06-10T07:00:13;27.10;72.20
18894;DHT22;9579;49.488;8.226;2023-06-10T07:03:00;27.40;71.90
18894;DHT22;9579;49.488;8.226;2023-06-10T07:05:49;27.50;71.40
18894;DHT22;9579;49.488;8.226;2023-06-10T07:08:36;27.60;70.80
18894;DHT22;9579;49.488;8.226;2023-06-10T07:11:23;27.70;69.60
18894;DHT22;9579;49.488;8.226;2023-06-10T07:14:11;27.80;70.90
18894;DHT22;9579;49.488;8.226;2023-06-10T07:16:57;27.90;70.50
18894;DHT22;9579;49.488;8.226;2023-06-10T07:19:45;28.20;69.30
18894;DHT22;9579;49.488;8.226;2023-06-10T07:22:33;28.40;69.30
18894;DHT22;9579;49.488;8.226;2023-06-10T07:25:21;28.60;68.40
18894;DHT22;9579;49.488;8.226;2023-06-10T07:28:08;28.80;66.60
18894;DHT22;9579;49.488;8.226;2023-06-10T07:30:55;29.00;66.20
18894;DHT22;9579;49.488;8.226;2023-06-10T07:33:42;29.10;66.30
18894;DHT22;9579;49.488;8.226;2023-06-10T07:36:29;29.10;65.50
18894;DHT22;9579;49.488;8.226;2023-06-10T07:39:17;29.20;65.30
18894;DHT22;9579;49.488;8.226;2023-06-10T07:42:05;29.20;65.30
18894;DHT22;9579;49.488;8.226;2023-06-10T07:44:52;29.40;65.20
18894;DHT22;9579;49.488;8.226;2023-06-10T07:47:39;29.40;62.50
18894;DHT22;9579;49.488;8.226;2023-06-10T07:50:26;29.50;63.20
18894;DHT22;9579;49.488;8.226;2023-06-10T07:53:13;29.60;64.30
18894;DHT22;9579;49.488;8.226;2023-06-10T07:56:02;29.60;64.70
18894;DHT22;9579;49.488;8.226;2023-06-10T07:58:49;29.70;63.60
18894;DHT22;9579;49.488;8.226;2023-06-10T08:01:36;28.70;64.40
18894;DHT22;9579;49.488;8.226;2023-06-10T08:04:25;29.20;65.70
18894;DHT22;9579;49.488;8.226;2023-06-10T08:07:12;29.60;65.30
18894;DHT22;9579;49.488;8.226;2023-06-10T08:09:59;29.90;61.80
18894;DHT22;9579;49.488;8.226;2023-06-10T08:12:47;29.90;61.80
18894;DHT22;9579;49.488;8.226;2023-06-10T08:15:34;29.90;61.50
18894;DHT22;9579;49.488;8.226;2023-06-10T08:18:21;29.80;62.90
18894;DHT22;9579;49.488;8.226;2023-06-10T08:21:08;29.50;64.10
18894;DHT22;9579;49.488;8.226;2023-06-10T08:23:55;29.30;62.30
18894;DHT22;9579;49.488;8.226;2023-06-10T08:26:42;29.20;64.10
18894;DHT22;9579;49.488;8.226;2023-06-10T08:29:30;29.80;62.60
18894;DHT22;9579;49.488;8.226;2023-06-10T08:32:17;30.30;62.30
18894;DHT22;9579;49.488;8.226;2023-06-10T08:35:05;29.90;61.90
18894;DHT22;9579;49.488;8.226;2023-06-10T08:37:52;29.30;64.80
18894;DHT22;9579;49.488;8.226;2023-06-10T08:40:39;29.20;62.90
18894;DHT22;9579;49.488;8.226;2023-06-10T08:43:33;29.70;61.60
18894;DHT22;9579;49.488;8.226;2023-06-10T08:46:22;30.50;61.10
18894;DHT22;9579;49.488;8.226;2023-06-10T08:49:09;30.40;61.30
18894;DHT22;9579;49.488;8.226;2023-06-10T08:51:59;29.40;62.90
18894;DHT22;9579;49.488;8.226;2023-06-10T08:54:53;30.00;62.80
18894;DHT22;9579;49.488;8.226;2023-06-10T08:57:42;30.70;60.80
18894;DHT22;9579;49.488;8.226;2023-06-10T09:00:31;30.90;61.00
18894;DHT22;9579;49.488;8.226;2023-06-10T09:03:20;31.20;60.40
18894;DHT22;9579;49.488;8.226;2023-06-10T09:06:08;31.50;60.90
18894;DHT22;9579;49.488;8.226;2023-06-10T09:08:55;31.80;58.60
18894;DHT22;9579;49.488;8.226;2023-06-10T09:11:43;32.10;59.40
18894;DHT22;9579;49.488;8.226;2023-06-10T09:14:30;31.80;59.00
18894;DHT22;9579;49.488;8.226;2023-06-10T09:17:17;31.70;59.10
18894;DHT22;9579;49.488;8.226;2023-06-10T09:20:07;31.60;58.50
18894;DHT22;9579;49.488;8.226;2023-06-10T09:22:54;31.20;59.40
18894;DHT22;9579;49.488;8.226;2023-06-10T09:25:41;31.30;61.40
18894;DHT22;9579;49.488;8.226;2023-06-10T09:28:28;31.50;60.30
18894;DHT22;9579;49.488;8.226;2023-06-10T09:31:15;32.10;59.10
18894;DHT22;9579;49.488;8.226;2023-06-10T09:34:07;32.50;57.80
18894;DHT22;9579;49.488;8.226;2023-06-10T09:36:56;32.60;57.80
18894;DHT22;9579;49.488;8.226;2023-06-10T09:39:43;31.10;59.90
18894;DHT22;9579;49.488;8.226;2023-06-10T09:42:33;31.20;60.40
18894;DHT22;9579;49.488;8.226;2023-06-10T09:45:21;31.30;61.50
18894;DHT22;9579;49.488;8.226;2023-06-10T09:48:09;31.60;60.20
18894;DHT22;9579;49.488;8.226;2023-06-10T09:50:56;31.70;59.40
18894;DHT22;9579;49.488;8.226;2023-06-10T09:53:48;32.20;59.50
18894;DHT22;9579;49.488;8.226;2023-06-10T09:56:35;32.10;59.10
18894;DHT22;9579;49.488;8.226;2023-06-10T09:59:29;32.50;57.60
18894;DHT22;9579;49.488;8.226;2023-06-10T10:02:17;33.10;57.70
18894;DHT22;9579;49.488;8.226;2023-06-10T10:05:05;32.80;57.30
18894;DHT22;9579;49.488;8.226;2023-06-10T10:07:52;31.90;58.10
18894;DHT22;9579;49.488;8.226;2023-06-10T10:10:40;31.30;59.50
18894;DHT22;9579;49.488;8.226;2023-06-10T10:13:28;31.40;59.80
18894;DHT22;9579;49.488;8.226;2023-06-10T10:16:17;30.70;62.10
18894;DHT22;9579;49.488;8.226;2023-06-10T10:19:08;31.50;60.70
18894;DHT22;9579;49.488;8.226;2023-06-10T10:22:03;31.10;60.40
18894;DHT22;9579;49.488;8.226;2023-06-10T10:24:53;32.20;59.50
18894;DHT22;9579;49.488;8.226;2023-06-10T10:27:48;33.00;59.00
18894;DHT22;9579;49.488;8.226;2023-06-10T10:30:39;33.50;57.00
18894;DHT22;9579;49.488;8.226;2023-06-10T10:33:31;33.00;57.40
18894;DHT22;9579;49.488;8.226;2023-06-10T10:36:20;33.10;57.70
18894;DHT22;9579;49.488;8.226;2023-06-10T10:39:07;33.90;56.50
18894;DHT22;9579;49.488;8.226;2023-06-10T10:41:55;33.70;55.80
18894;DHT22;9579;49.488;8.226;2023-06-10T10:44:44;33.30;54.80
18894;DHT22;9579;49.488;8.226;2023-06-10T10:47:33;33.00;56.60
18894;DHT22;9579;49.488;8.226;2023-06-10T10:50:22;33.30;56.00
18894;DHT22;9579;49.488;8.226;2023-06-10T10:53:09;33.30;57.50
18894;DHT22;9579;49.488;8.226;2023-06-10T10:55:59;33.80;55.20
18894;DHT22;9579;49.488;8.226;2023-06-10T10:59:03;33.40;55.60
18894;DHT22;9579;49.488;8.226;2023-06-10T11:01:52;34.20;55.80
18894;DHT22;9579;49.488;8.226;2023-06-10T11:04:44;34.80;54.50
18894;DHT22;9579;49.488;8.226;2023-06-10T11:07:32;34.90;54.30
18894;DHT22;9579;49.488;8.226;2023-06-10T11:10:29;34.90;53.20
18894;DHT22;9579;49.488;8.226;2023-06-10T11:13:20;35.50;52.90
18894;DHT22;9579;49.488;8.226;2023-06-10T11:16:08;36.00;52.30
18894;DHT22;9579;49.488;8.226;2023-06-10T11:18:57;36.00;51.90
18894;DHT22;9579;49.488;8.226;2023-06-10T11:22:00;35.90;52.30
18894;DHT22;9579;49.488;8.226;2023-06-10T11:24:49;35.30;50.60
18894;DHT22;9579;49.488;8.226;2023-06-10T11:27:37;35.00;51.10
18894;DHT22;9579;49.488;8.226;2023-06-10T11:30:26;35.00;50.20
18894;DHT22;9579;49.488;8.226;2023-06-10T11:33:16;35.10;50.20
18894;DHT22;9579;49.488;8.226;2023-06-10T11:36:07;33.70;52.10
18894;DHT22;9579;49.488;8.226;2023-06-10T11:38:57;32.70;52.60
18894;DHT22;9579;49.488;8.226;2023-06-10T11:41:45;33.10;52.90
18894;DHT22;9579;49.488;8.226;2023-06-10T11:44:32;33.60;51.30
18894;DHT22;9579;49.488;8.226;2023-06-10T11:47:23;33.50;51.10
18894;DHT22;9579;49.488;8.226;2023-06-10T11:50:10;33.00;51.10
18894;DHT22;9579;49.488;8.226;2023-06-10T11:52:58;32.90;52.30
18894;DHT22;9579;49.488;8.226;2023-06-10T11:55:46;33.40;51.70
18894;DHT22;9579;49.488;8.226;2023-06-10T11:58:34;33.90;51.50
18894;DHT22;9579;49.488;8.226;2023-06-10T12:01:21;34.50;50.20
18894;DHT22;9579;49.488;8.226;2023-06-10T12:04:10;34.50;50.30
18894;DHT22;9579;49.488;8.226;2023-06-10T12:06:58;34.10;49.60
18894;DHT22;9579;49.488;8.226;2023-06-10T12:09:46;35.40;50.00
18894;DHT22;9579;49.488;8.226;2023-06-10T12:12:35;36.60;48.40
18894;DHT22;9579;49.488;8.226;2023-06-10T12:15:24;37.20;48.00
18894;DHT22;9579;49.488;8.226;2023-06-10T12:18:16;37.00;47.80
18894;DHT22;9579;49.488;8.226;2023-06-10T12:21:03;36.70;47.20
18894;DHT22;9579;49.488;8.226;2023-06-10T12:24:06;36.20;47.30
18894;DHT22;9579;49.488;8.226;2023-06-10T12:26:55;34.80;50.30
18894;DHT22;9579;49.488;8.226;2023-06-10T12:29:51;35.00;49.80
18894;DHT22;9579;49.488;8.226;2023-06-10T12:32:41;35.10;49.50
18894;DHT22;9579;49.488;8.226;2023-06-10T12:35:28;35.20;50.60
18894;DHT22;9579;49.488;8.226;2023-06-10T12:38:21;35.80;50.40
18894;DHT22;9579;49.488;8.226;2023-06-10T12:41:10;36.30;49.50
18894;DHT22;9579;49.488;8.226;2023-06-10T12:43:58;36.00;48.20
18894;DHT22;9579;49.488;8.226;2023-06-10T12:46:45;35.70;50.00
18894;DHT22;9579;49.488;8.226;2023-06-10T12:49:40;35.60;50.60
18894;DHT22;9579;49.488;8.226;2023-06-10T12:52:27;35.80;48.60
18894;DHT22;9579;49.488;8.226;2023-06-10T12:55:14;34.70;51.10
18894;DHT22;9579;49.488;8.226;2023-06-10T12:58:02;34.70;51.10
18894;DHT22;9579;49.488;8.226;2023-06-10T13:00:51;35.50;51.10
18894;DHT22;9579;49.488;8.226;2023-06-10T13:03:38;36.50;48.10
18894;DHT22;9579;49.488;8.226;2023-06-10T13:06:26;35.60;48.30
18894;DHT22;9579;49.488;8.226;2023-06-10T13:09:13;35.30;49.40
18894;DHT22;9579;49.488;8.226;2023-06-10T13:12:01;34.40;51.60
18894;DHT22;9579;49.488;8.226;2023-06-10T13:14:48;34.40;51.10
18894;DHT22;9579;49.488;8.226;2023-06-10T13:17:36;33.80;52.30
18894;DHT22;9579;49.488;8.226;2023-06-10T13:20:23;34.00;51.70
18894;DHT22;9579;49.488;8.226;2023-06-10T13:23:11;34.20;51.40
18894;DHT22;9579;49.488;8.226;2023-06-10T13:25:59;35.20;50.50
18894;DHT22;9579;49.488;8.226;2023-06-10T13:28:48;35.80;50.60
18894;DHT22;9579;49.488;8.226;2023-06-10T13:31:35;36.60;48.90
18894;DHT22;9579;49.488;8.226;2023-06-10T13:34:23;34.80;49.60
18894;DHT22;9579;49.488;8.226;2023-06-10T13:37:10;35.70;50.00
18894;DHT22;9579;49.488;8.226;2023-06-10T13:39:58;34.90;50.80
18894;DHT22;9579;49.488;8.226;2023-06-10T13:42:45;34.90;51.00
18894;DHT22;9579;49.488;8.226;2023-06-10T13:45:36;35.60;50.20
18894;DHT22;9579;49.488;8.226;2023-06-10T13:48:23;34.80;51.10
18894;DHT22;9579;49.488;8.226;2023-06-10T13:51:11;34.80;51.00
18894;DHT22;9579;49.488;8.226;2023-06-10T13:53:58;34.50;49.60
18894;DHT22;9579;49.488;8.226;2023-06-10T13:56:45;33.60;51.80
18894;DHT22;9579;49.488;8.226;2023-06-10T13:59:32;33.90;51.50
18894;DHT22;9579;49.488;8.226;2023-06-10T14:02:20;33.80;52.20
18894;DHT22;9579;49.488;8.226;2023-06-10T14:05:07;33.50;51.50
18894;DHT22;9579;49.488;8.226;2023-06-10T14:07:56;33.00;52.00
18894;DHT22;9579;49.488;8.226;2023-06-10T14:10:43;32.70;53.70
18894;DHT22;9579;49.488;8.226;2023-06-10T14:13:30;32.70;52.70
18894;DHT22;9579;49.488;8.226;2023-06-10T14:16:17;33.20;52.50
18894;DHT22;9579;49.488;8.226;2023-06-10T14:19:04;33.60;50.40
18894;DHT22;9579;49.488;8.226;2023-06-10T14:21:51;32.30;52.20
18894;DHT22;9579;49.488;8.226;2023-06-10T14:24:40;31.70;52.80
18894;DHT22;9579;49.488;8.226;2023-06-10T14:27:27;31.60;52.90
18894;DHT22;9579;49.488;8.226;2023-06-10T14:30:14;31.50;54.50
18894;DHT22;9579;49.488;8.226;2023-06-10T14:33:01;31.20;55.30
18894;DHT22;9579;49.488;8.226;2023-06-10T14:35:49;31.00;55.00
18894;DHT22;9579;49.488;8.226;2023-06-10T14:38:36;31.20;55.50
18894;DHT22;9579;49.488;8.226;2023-06-10T14:41:24;30.90;54.40
18894;DHT22;9579;49.488;8.226;2023-06-10T14:44:11;31.40;54.00
18894;DHT22;9579;49.488;8.226;2023-06-10T14:46:58;31.60;53.70
18894;DHT22;9579;49.488;8.226;2023-06-10T14:49:45;31.50;53.80
18894;DHT22;9579;49.488;8.226;2023-06-10T14:52:32;32.00;55.20
18894;DHT22;9579;49.488;8.226;2023-06-10T14:55:19;32.80;53.00
18894;DHT22;9579;49.488;8.226;2023-06-10T14:58:09;33.70;52.60
18894;DHT22;9579;49.488;8.226;2023-06-10T15:00:56;34.70;51.50
18894;DHT22;9579;49.488;8.226;2023-06-10T15:03:43;35.40;49.90
18894;DHT22;9579;49.488;8.226;2023-06-10T15:06:30;36.20;50.70
18894;DHT22;9579;49.488;8.226;2023-06-10T15:09:17;36.70;48.10
18894;DHT22;9579;49.488;8.226;2023-06-10T15:12:05;37.00;48.90
18894;DHT22;9579;49.488;8.226;2023-06-10T15:14:53;37.20;47.70
18894;DHT22;9579;49.488;8.226;2023-06-10T15:17:40;37.80;46.40
18894;DHT22;9579;49.488;8.226;2023-06-10T15:20:27;38.10;46.20
18894;DHT22;9579;49.488;8.226;2023-06-10T15:23:14;38.50;44.60
18894;DHT22;9579;49.488;8.226;2023-06-10T15:26:01;38.90;44.10
18894;DHT22;9579;49.488;8.226;2023-06-10T15:28:48;39.00;44.60
18894;DHT22;9579;49.488;8.226;2023-06-10T15:31:37;39.20;44.50
18894;DHT22;9579;49.488;8.226;2023-06-10T15:34:24;38.10;45.00
18894;DHT22;9579;49.488;8.226;2023-06-10T15:37:11;36.20;46.40
18894;DHT22;9579;49.488;8.226;2023-06-10T15:39:58;35.60;47.30
18894;DHT22;9579;49.488;8.226;2023-06-10T15:42:45;34.50;48.70
18894;DHT22;9579;49.488;8.226;2023-06-10T15:45:32;33.20;50.50
18894;DHT22;9579;49.488;8.226;2023-06-10T15:48:20;32.70;51.80
18894;DHT22;9579;49.488;8.226;2023-06-10T15:51:07;32.10;52.30
18894;DHT22;9579;49.488;8.226;2023-06-10T15:53:54;32.00;53.90
18894;DHT22;9579;49.488;8.226;2023-06-10T15:56:41;31.80;53.90
18894;DHT22;9579;49.488;8.226;2023-06-10T15:59:28;31.40;53.90
18894;DHT22;9579;49.488;8.226;2023-06-10T16:02:15;31.70;54.30
18894;DHT22;9579;49.488;8.226;2023-06-10T16:05:04;32.20;54.70
18894;DHT22;9579;49.488;8.226;2023-06-10T16:07:52;32.50;53.30
18894;DHT22;9579;49.488;8.226;2023-06-10T16:10:39;32.50;53.60
18894;DHT22;9579;49.488;8.226;2023-06-10T16:13:26;32.30;52.10
18894;DHT22;9579;49.488;8.226;2023-06-10T16:16:13;32.30;52.10
18894;DHT22;9579;49.488;8.226;2023-06-10T16:18:59;31.80;52.30
18894;DHT22;9579;49.488;8.226;2023-06-10T16:21:48;32.20;52.20
18894;DHT22;9579;49.488;8.226;2023-06-10T16:24:35;32.10;51.50
18894;DHT22;9579;49.488;8.226;2023-06-10T16:27:22;32.00;51.50
18894;DHT22;9579;49.488;8.226;2023-06-10T16:30:10;32.10;52.40
18894;DHT22;9579;49.488;8.226;2023-06-10T16:32:59;32.30;52.30
18894;DHT22;9579;49.488;8.226;2023-06-10T16:35:46;32.10;53.70
18894;DHT22;9579;49.488;8.226;2023-06-10T16:38:34;32.10;53.10
18894;DHT22;9579;49.488;8.226;2023-06-10T16:41:21;32.00;53.80
18894;DHT22;9579;49.488;8.226;2023-06-10T16:44:08;31.70;54.50
18894;DHT22;9579;49.488;8.226;2023-06-10T16:46:55;31.90;55.00
18894;DHT22;9579;49.488;8.226;2023-06-10T16:49:42;31.60;54.10
18894;DHT22;9579;49.488;8.226;2023-06-10T16:52:29;31.40;55.70
18894;DHT22;9579;49.488;8.226;2023-06-10T16:55:18;31.80;55.40
18894;DHT22;9579;49.488;8.226;2023-06-10T16:58:05;32.00;54.80
18894;DHT22;9579;49.488;8.226;2023-06-10T17:00:52;32.20;54.30
18894;DHT22;9579;49.488;8.226;2023-06-10T17:03:39;32.30;54.10
18894;DHT22;9579;49.488;8.226;2023-06-10T17:06:26;32.00;53.70
18894;DHT22;9579;49.488;8.226;2023-06-10T17:09:13;31.70;53.80
18894;DHT22;9579;49.488;8.226;2023-06-10T17:12:02;31.40;54.30
18894;DHT22;9579;49.488;8.226;2023-06-10T17:14:49;31.40;54.80
18894;DHT22;9579;49.488;8.226;2023-06-10T17:17:36;31.50;54.80
18894;DHT22;9579;49.488;8.226;2023-06-10T17:20:23;31.30;54.70
18894;DHT22;9579;49.488;8.226;2023-06-10T17:23:10;31.00;55.90
18894;DHT22;9579;49.488;8.226;2023-06-10T17:25:57;31.20;56.70
18894;DHT22;9579;49.488;8.226;2023-06-10T17:28:45;31.50;55.70
18894;DHT22;9579;49.488;8.226;2023-06-10T17:31:32;31.60;56.00
18894;DHT22;9579;49.488;8.226;2023-06-10T17:34:19;31.40;55.10
18894;DHT22;9579;49.488;8.226;2023-06-10T17:37:06;31.30;55.50
18894;DHT22;9579;49.488;8.226;2023-06-10T17:39:53;30.70;56.20
18894;DHT22;9579;49.488;8.226;2023-06-10T17:42:40;30.70;57.10
18894;DHT22;9579;49.488;8.226;2023-06-10T17:45:29;30.80;57.50
18894;DHT22;9579;49.488;8.226;2023-06-10T17:48:16;30.80;57.20
18894;DHT22;9579;49.488;8.226;2023-06-10T17:51:03;31.00;57.70
18894;DHT22;9579;49.488;8.226;2023-06-10T17:53:50;31.10;56.60
18894;DHT22;9579;49.488;8.226;2023-06-10T17:56:37;31.00;56.30
18894;DHT22;9579;49.488;8.226;2023-06-10T17:59:24;31.10;56.20
18894;DHT22;9579;49.488;8.226;2023-06-10T18:02:12;31.00;56.60
18894;DHT22;9579;49.488;8.226;2023-06-10T18:04:59;30.80;56.70
18894;DHT22;9579;49.488;8.226;2023-06-10T18:07:46;30.90;56.70
18894;DHT22;9579;49.488;8.226;2023-06-10T18:10:33;30.70;56.20
18894;DHT22;9579;49.488;8.226;2023-06-10T18:13:20;30.70;56.00
18894;DHT22;9579;49.488;8.226;2023-06-10T18:16:07;30.80;56.80
18894;DHT22;9579;49.488;8.226;2023-06-10T18:18:55;30.60;56.40
18894;DHT22;9579;49.488;8.226;2023-06-10T18:21:42;30.60;57.00
18894;DHT22;9579;49.488;8.226;2023-06-10T18:24:29;30.80;57.40
18894;DHT22;9579;49.488;8.226;2023-06-10T18:27:16;30.90;56.70
18894;DHT22;9579;49.488;8.226;2023-06-10T18:30:04;31.00;56.50
18894;DHT22;9579;49.488;8.226;2023-06-10T18:32:51;31.00;57.10
18894;DHT22;9579;49.488;8.226;2023-06-10T18:35:40;31.00;56.90
18894;DHT22;9579;49.488;8.226;2023-06-10T18:38:27;31.10;57.70
18894;DHT22;9579;49.488;8.226;2023-06-10T18:41:14;31.00;57.60
18894;DHT22;9579;49.488;8.226;2023-06-10T18:44:01;30.90;57.40
18894;DHT22;9579;49.488;8.226;2023-06-10T18:46:48;30.80;57.50
18894;DHT22;9579;49.488;8.226;2023-06-10T18:49:35;30.50;58.20
18894;DHT22;9579;49.488;8.226;2023-06-10T18:52:23;30.40;58.80
18894;DHT22;9579;49.488;8.226;2023-06-10T18:55:11;30.10;61.10
18894;DHT22;9579;49.488;8.226;2023-06-10T18:57:58;30.00;61.80
18894;DHT22;9579;49.488;8.226;2023-06-10T19:00:45;30.00;64.00
18894;DHT22;9579;49.488;8.226;2023-06-10T19:03:32;29.60;64.50
18894;DHT22;9579;49.488;8.226;2023-06-10T19:06:19;29.20;66.20
18894;DHT22;9579;49.488;8.226;2023-06-10T19:09:07;28.90;67.40
18894;DHT22;9579;49.488;8.226;2023-06-10T19:11:54;28.50;67.70
18894;DHT22;9579;49.488;8.226;2023-06-10T19:14:41;27.90;67.60
18894;DHT22;9579;49.488;8.226;2023-06-10T19:17:28;27.50;70.90
18894;DHT22;9579;49.488;8.226;2023-06-10T19:20:16;27.20;70.10
18894;DHT22;9579;49.488;8.226;2023-06-10T19:23:02;27.10;70.10
18894;DHT22;9579;49.488;8.226;2023-06-10T19:25:51;27.10;70.50
18894;DHT22;9579;49.488;8.226;2023-06-10T19:28:38;27.20;70.50
18894;DHT22;9579;49.488;8.226;2023-06-10T19:31:25;27.30;70.70
18894;DHT22;9579;49.488;8.226;2023-06-10T19:34:12;27.30;70.90
18894;DHT22;9579;49.488;8.226;2023-06-10T19:36:59;27.40;69.80
18894;DHT22;9579;49.488;8.226;2023-06-10T19:39:46;27.30;70.80
18894;DHT22;9579;49.488;8.226;2023-06-10T19:42:35;27.20;70.40
18894;DHT22;9579;49.488;8.226;2023-06-10T19:45:22;27.00;71.60
18894;DHT22;9579;49.488;8.226;2023-06-10T19:48:10;27.20;71.10
18894;DHT22;9579;49.488;8.226;2023-06-10T19:50:58;27.00;71.50
18894;DHT22;9579;49.488;8.226;2023-06-10T19:53:46;27.20;71.10
18894;DHT22;9579;49.488;8.226;2023-06-10T19:56:33;27.40;71.10
18894;DHT22;9579;49.488;8.226;2023-06-10T19:59:21;27.50;71.60
18894;DHT22;9579;49.488;8.226;2023-06-10T20:02:08;27.30;70.90
18894;DHT22;9579;49.488;8.226;2023-06-10T20:04:55;27.30;71.20
18894;DHT22;9579;49.488;8.226;2023-06-10T20:07:43;27.50;71.30
18894;DHT22;9579;49.488;8.226;2023-06-10T20:10:30;27.50;72.00
18894;DHT22;9579;49.488;8.226;2023-06-10T20:13:17;27.40;72.10
18894;DHT22;9579;49.488;8.226;2023-06-10T20:16:05;27.30;72.30
18894;DHT22;9579;49.488;8.226;2023-06-10T20:18:52;27.30;71.60
18894;DHT22;9579;49.488;8.226;2023-06-10T20:21:39;27.40;71.50
18894;DHT22;9579;49.488;8.226;2023-06-10T20:24:26;27.30;71.80
18894;DHT22;9579;49.488;8.226;2023-06-10T20:27:13;27.20;71.60
18894;DHT22;9579;49.488;8.226;2023-06-10T20:30:00;27.10;72.90
18894;DHT22;9579;49.488;8.226;2023-06-10T20:32:49;27.00;72.80
18894;DHT22;9579;49.488;8.226;2023-06-10T20:35:37;27.00;73.80
18894;DHT22;9579;49.488;8.226;2023-06-10T20:38:24;26.90;73.10
18894;DHT22;9579;49.488;8.226;2023-06-10T20:41:11;26.90;74.30
18894;DHT22;9579;49.488;8.226;2023-06-10T20:43:58;26.80;74.20
18894;DHT22;9579;49.488;8.226;2023-06-10T20:46:46;26.70;74.20
18894;DHT22;9579;49.488;8.226;2023-06-10T20:49:34;26.70;75.00
18894;DHT22;9579;49.488;8.226;2023-06-10T20:52:21;26.70;74.30
18894;DHT22;9579;49.488;8.226;2023-06-10T20:55:09;26.60;73.80
18894;DHT22;9579;49.488;8.226;2023-06-10T20:57:56;26.60;73.80
18894;DHT22;9579;49.488;8.226;2023-06-10T21:00:44;26.60;74.80
18894;DHT22;9579;49.488;8.226;2023-06-10T21:03:31;26.50;74.40
18894;DHT22;9579;49.488;8.226;2023-06-10T21:06:20;26.50;74.40
18894;DHT22;9579;49.488;8.226;2023-06-10T21:09:08;26.50;74.50
18894;DHT22;9579;49.488;8.226;2023-06-10T21:11:55;26.40;74.60
18894;DHT22;9579;49.488;8.226;2023-06-10T21:14:42;26.40;74.80
18894;DHT22;9579;49.488;8.226;2023-06-10T21:17:29;26.30;74.70
18894;DHT22;9579;49.488;8.226;2023-06-10T21:20:16;26.20;74.90
18894;DHT22;9579;49.488;8.226;2023-06-10T21:23:04;26.20;76.00
18894;DHT22;9579;49.488;8.226;2023-06-10T21:25:51;26.20;76.30
18894;DHT22;9579;49.488;8.226;2023-06-10T21:28:38;26.10;76.10
18894;DHT22;9579;49.488;8.226;2023-06-10T21:31:25;26.00;76.50
18894;DHT22;9579;49.488;8.226;2023-06-10T21:34:12;26.00;78.10
18894;DHT22;9579;49.488;8.226;2023-06-10T21:36:59;25.90;77.00
18894;DHT22;9579;49.488;8.226;2023-06-10T21:39:47;25.80;77.00
18894;DHT22;9579;49.488;8.226;2023-06-10T21:42:34;25.80;77.40